createdAt,value
2023-04-10T00:00:05.690Z,3.04
2023-04-10T00:03:09.152Z,3.03
2023-04-10T00:06:12.798Z,3.00
2023-04-10T00:09:16.299Z,2.99
2023-04-10T00:12:19.112Z,3.01
2023-04-10T00:15:22.091Z,3.06
2023-04-10T00:18:27.641Z,3.02
2023-04-10T00:21:30.586Z,3.00
2023-04-10T00:24:33.814Z,2.96
2023-04-10T00:27:37.737Z,2.99
2023-04-10T00:30:41.237Z,2.91
2023-04-10T00:33:44.729Z,2.84
2023-04-10T00:36:51.434Z,2.85
2023-04-10T00:39:54.810Z,2.82
2023-04-10T00:42:57.815Z,2.86
2023-04-10T00:46:01.246Z,2.80
2023-04-10T00:49:03.901Z,2.72
2023-04-10T00:52:07.181Z,2.67
2023-04-10T00:55:11.028Z,2.61
2023-04-10T00:58:15.005Z,2.61
2023-04-10T01:01:18.484Z,2.59
2023-04-10T01:04:22.558Z,2.56
2023-04-10T01:07:43.962Z,2.55
2023-04-10T01:10:53.204Z,2.52
2023-04-10T01:14:05.210Z,2.52
2023-04-10T01:17:19.346Z,2.59
2023-04-10T01:20:26.261Z,2.58
2023-04-10T01:23:47.824Z,2.55
2023-04-10T01:26:57.496Z,2.60
2023-04-10T01:30:02.832Z,2.61
2023-04-10T01:33:09.693Z,2.67
2023-04-10T01:36:13.817Z,2.63
2023-04-10T01:39:20.029Z,2.61
2023-04-10T01:42:24.040Z,2.55
2023-04-10T01:45:29.018Z,2.54
2023-04-10T01:48:32.681Z,2.55
2023-04-10T01:51:37.103Z,2.53
2023-04-10T01:54:40.291Z,2.49
2023-04-10T01:57:43.086Z,2.56
2023-04-10T02:00:46.293Z,2.55
2023-04-10T02:03:49.946Z,2.51
2023-04-10T02:07:08.789Z,2.38
2023-04-10T02:10:20.147Z,2.32
2023-04-10T02:13:24.214Z,2.30
2023-04-10T02:16:28.401Z,2.33
2023-04-10T02:19:32.884Z,2.25
2023-04-10T02:22:37.185Z,2.15
2023-04-10T02:25:40.891Z,2.08
2023-04-10T02:28:44.084Z,2.06
2023-04-10T02:31:48.514Z,2.07
2023-04-10T02:34:51.355Z,2.07
2023-04-10T02:37:54.340Z,2.12
2023-04-10T02:40:57.219Z,2.05
2023-04-10T02:44:00.196Z,1.99
2023-04-10T02:47:03.476Z,1.94
2023-04-10T02:50:06.400Z,2.00
2023-04-10T02:53:09.550Z,1.95
2023-04-10T02:56:13.412Z,1.89
2023-04-10T02:59:16.481Z,1.98
2023-04-10T03:02:19.246Z,1.90
2023-04-10T03:05:22.132Z,1.83
2023-04-10T03:08:25.453Z,1.78
2023-04-10T03:11:28.528Z,1.75
2023-04-10T03:14:31.250Z,1.75
2023-04-10T03:17:33.805Z,1.68
2023-04-10T03:20:37.746Z,1.65
2023-04-10T03:23:40.966Z,1.64
2023-04-10T03:26:43.603Z,1.65
2023-04-10T03:29:46.819Z,1.51
2023-04-10T03:32:49.764Z,1.71
2023-04-10T03:35:54.301Z,1.78
2023-04-10T03:38:57.274Z,1.65
2023-04-10T03:42:00.424Z,1.62
2023-04-10T03:45:07.201Z,1.62
2023-04-10T03:48:10.813Z,1.64
2023-04-10T03:51:13.870Z,1.67
2023-04-10T03:54:16.687Z,1.63
2023-04-10T03:57:21.635Z,1.53
2023-04-10T04:00:25.492Z,1.63
2023-04-10T04:03:28.898Z,1.69
2023-04-10T04:06:31.733Z,1.67
2023-04-10T04:09:34.793Z,1.65
2023-04-10T04:12:38.121Z,1.72
2023-04-10T04:15:41.367Z,1.69
2023-04-10T04:18:43.901Z,1.73
2023-04-10T04:21:46.954Z,1.70
2023-04-10T04:24:50.804Z,1.73
2023-04-10T04:27:53.356Z,1.76
2023-04-10T04:30:56.181Z,1.76
2023-04-10T04:33:59.669Z,1.75
2023-04-10T04:37:03.656Z,1.77
2023-04-10T04:40:06.906Z,1.80
2023-04-10T04:43:09.876Z,1.87
2023-04-10T04:46:12.650Z,2.00
2023-04-10T04:49:16.619Z,2.03
2023-04-10T04:52:19.160Z,2.22
2023-04-10T04:55:22.030Z,2.30
2023-04-10T04:58:25.856Z,2.45
2023-04-10T05:01:28.251Z,2.73
2023-04-10T05:04:31.085Z,2.84
2023-04-10T05:07:34.208Z,3.01
2023-04-10T05:10:38.874Z,3.41
2023-04-10T05:13:42.099Z,3.83
2023-04-10T05:16:44.941Z,4.16
2023-04-10T05:19:47.781Z,4.39
2023-04-10T05:22:51.179Z,4.61
2023-04-10T05:25:53.998Z,4.82
2023-04-10T05:28:56.756Z,5.36
2023-04-10T05:31:59.424Z,5.62
2023-04-10T05:35:02.254Z,5.83
2023-04-10T05:38:05.631Z,5.86
2023-04-10T05:41:09.111Z,6.07
2023-04-10T05:44:12.661Z,6.45
2023-04-10T05:47:16.075Z,7.07
2023-04-10T05:50:19.072Z,7.47
2023-04-10T05:53:22.525Z,8.25
2023-04-10T05:56:26.123Z,9.28
2023-04-10T05:59:28.855Z,9.75
2023-04-10T06:02:31.778Z,10.43
2023-04-10T06:05:35.088Z,11.17
2023-04-10T06:08:37.818Z,11.51
2023-04-10T06:11:41.016Z,11.25
2023-04-10T06:14:43.755Z,11.53
2023-04-10T06:17:47.014Z,12.41
2023-04-10T06:20:49.696Z,13.08
2023-04-10T06:23:52.762Z,13.93
2023-04-10T06:26:57.662Z,14.88
2023-04-10T06:30:01.270Z,15.62
2023-04-10T06:33:03.737Z,15.61
2023-04-10T06:36:07.467Z,16.04
2023-04-10T06:39:10.243Z,17.38
2023-04-10T06:42:12.723Z,19.21
2023-04-10T06:45:15.765Z,19.95
2023-04-10T06:48:18.815Z,21.15
2023-04-10T06:51:21.796Z,21.26
2023-04-10T06:54:24.461Z,21.47
2023-04-10T06:57:27.267Z,22.41
2023-04-10T07:00:31.464Z,23.71
2023-04-10T07:03:35.271Z,21.42
2023-04-10T07:06:38.289Z,20.51
2023-04-10T07:09:41.799Z,20.74
2023-04-10T07:12:45.039Z,22.96
2023-04-10T07:15:48.201Z,21.71
2023-04-10T07:18:51.548Z,21.80
2023-04-10T07:21:54.376Z,22.23
2023-04-10T07:24:57.255Z,23.02
2023-04-10T07:28:00.228Z,23.03
2023-04-10T07:31:03.649Z,21.03
2023-04-10T07:34:07.048Z,23.00
2023-04-10T07:37:09.992Z,23.07
2023-04-10T07:40:13.097Z,20.68
2023-04-10T07:43:16.225Z,14.74
2023-04-10T07:46:19.583Z,14.19
2023-04-10T07:49:22.368Z,14.32
2023-04-10T07:52:25.307Z,15.03
2023-04-10T07:55:28.156Z,15.05
2023-04-10T07:58:32.635Z,14.44
2023-04-10T08:01:36.584Z,14.46
2023-04-10T08:04:39.925Z,14.75
2023-04-10T08:07:42.905Z,14.78
2023-04-10T08:10:45.821Z,14.27
2023-04-10T08:13:48.827Z,14.41
2023-04-10T08:16:51.818Z,14.19
2023-04-10T08:19:54.775Z,14.14
2023-04-10T08:23:03.075Z,14.07
2023-04-10T08:26:16.836Z,13.98
2023-04-10T08:29:19.782Z,13.69
2023-04-10T08:32:24.156Z,13.83
2023-04-10T08:35:26.587Z,13.95
2023-04-10T08:38:29.821Z,13.76
2023-04-10T08:41:32.724Z,13.74
2023-04-10T08:44:37.648Z,13.95
2023-04-10T08:47:42.496Z,13.96
2023-04-10T08:50:46.309Z,13.86
2023-04-10T08:53:52.611Z,13.94
2023-04-10T08:56:56.142Z,14.02
2023-04-10T09:00:00.655Z,14.05
2023-04-10T09:03:05.784Z,14.27
2023-04-10T09:06:09.302Z,14.46
2023-04-10T09:09:12.411Z,14.64
2023-04-10T09:12:16.338Z,14.73
2023-04-10T09:15:19.504Z,14.86
2023-04-10T09:18:22.510Z,15.10
2023-04-10T09:21:25.519Z,14.68
2023-04-10T09:24:28.811Z,14.94
2023-04-10T09:27:36.481Z,14.81
2023-04-10T09:30:43.158Z,14.72
2023-04-10T09:33:46.722Z,14.99
2023-04-10T09:36:57.761Z,15.15
2023-04-10T09:40:01.057Z,15.45
2023-04-10T09:43:17.345Z,15.67
2023-04-10T09:46:29.256Z,15.60
2023-04-10T09:49:45.381Z,15.67
2023-04-10T09:52:48.368Z,16.30
2023-04-10T09:55:51.268Z,16.51
2023-04-10T09:59:02.022Z,16.21
2023-04-10T10:02:06.196Z,16.01
2023-04-10T10:05:10.782Z,15.33
2023-04-10T10:08:14.763Z,15.64
2023-04-10T10:11:23.928Z,16.20
2023-04-10T10:14:29.372Z,16.62
2023-04-10T10:17:48.334Z,15.98
2023-04-10T10:20:52.041Z,15.87
2023-04-10T10:23:55.528Z,15.89
2023-04-10T10:27:00.076Z,15.59
2023-04-10T10:30:12.019Z,15.46
2023-04-10T10:33:26.411Z,15.30
2023-04-10T10:36:29.585Z,15.29
2023-04-10T10:39:35.078Z,15.40
2023-04-10T10:42:57.507Z,15.46
2023-04-10T10:46:04.835Z,15.49
2023-04-10T10:49:08.418Z,15.20
2023-04-10T10:52:10.699Z,15.40
2023-04-10T10:55:22.960Z,15.24
2023-04-10T10:58:56.424Z,15.25
2023-04-10T11:02:18.437Z,15.14
2023-04-10T11:05:40.673Z,15.13
2023-04-10T11:08:53.904Z,14.67
2023-04-10T11:12:02.544Z,14.72
2023-04-10T11:15:05.751Z,14.57
2023-04-10T11:18:08.431Z,14.55
2023-04-10T11:21:18.429Z,14.58
2023-04-10T11:24:21.887Z,14.64
2023-04-10T11:27:41.171Z,14.72
2023-04-10T11:30:44.346Z,14.64
2023-04-10T11:33:48.160Z,14.45
2023-04-10T11:36:51.354Z,13.89
2023-04-10T11:40:04.757Z,14.30
2023-04-10T11:43:14.622Z,14.29
2023-04-10T11:46:17.877Z,14.43
2023-04-10T11:49:22.667Z,14.52
2023-04-10T11:52:26.376Z,14.64
2023-04-10T11:55:39.432Z,14.50
2023-04-10T11:58:42.196Z,14.49
2023-04-10T12:01:44.976Z,14.66
2023-04-10T12:04:58.177Z,14.39
2023-04-10T12:08:01.396Z,14.72
2023-04-10T12:11:04.804Z,14.59
2023-04-10T12:14:08.298Z,14.11
2023-04-10T12:17:13.036Z,13.92
2023-04-10T12:20:17.342Z,14.08
2023-04-10T12:23:21.302Z,14.10
2023-04-10T12:26:24.708Z,14.29
2023-04-10T12:29:30.217Z,14.46
2023-04-10T12:32:33.624Z,14.49
2023-04-10T12:35:40.326Z,14.29
2023-04-10T12:38:44.410Z,14.07
2023-04-10T12:41:47.921Z,13.35
2023-04-10T12:44:52.669Z,13.43
2023-04-10T12:47:57.018Z,13.86
2023-04-10T12:51:00.906Z,14.01
2023-04-10T12:54:04.936Z,14.04
2023-04-10T12:57:09.551Z,13.81
2023-04-10T13:00:15.407Z,14.03
2023-04-10T13:03:18.342Z,14.56
2023-04-10T13:06:21.787Z,14.83
2023-04-10T13:09:25.695Z,14.93
2023-04-10T13:12:29.965Z,14.90
2023-04-10T13:15:35.256Z,14.58
2023-04-10T13:18:39.112Z,15.06
2023-04-10T13:21:42.117Z,15.48
2023-04-10T13:24:45.395Z,15.19
2023-04-10T13:27:48.757Z,15.30
2023-04-10T13:30:51.858Z,15.47
2023-04-10T13:33:55.160Z,15.45
2023-04-10T13:36:58.432Z,15.52
2023-04-10T13:40:01.843Z,15.56
2023-04-10T13:43:07.093Z,14.88
2023-04-10T13:46:10.228Z,14.48
2023-04-10T13:49:18.092Z,14.53
2023-04-10T13:52:21.647Z,14.84
2023-04-10T13:55:24.694Z,15.13
2023-04-10T13:58:32.138Z,15.31
2023-04-10T14:01:35.495Z,15.31
2023-04-10T14:04:38.784Z,15.63
2023-04-10T14:07:42.290Z,15.69
2023-04-10T14:10:46.960Z,15.51
2023-04-10T14:13:50.531Z,15.60
2023-04-10T14:16:53.353Z,15.64
2023-04-10T14:19:56.495Z,15.74
2023-04-10T14:22:59.801Z,15.93
2023-04-10T14:26:03.032Z,15.89
2023-04-10T14:29:08.490Z,16.00
2023-04-10T14:32:11.756Z,16.05
2023-04-10T14:35:14.876Z,15.96
2023-04-10T14:38:17.759Z,16.16
2023-04-10T14:41:21.166Z,16.39
2023-04-10T14:44:24.069Z,16.16
2023-04-10T14:47:27.133Z,15.92
2023-04-10T14:50:32.650Z,15.57
2023-04-10T14:53:35.748Z,15.19
2023-04-10T14:56:39.264Z,15.13
2023-04-10T14:59:41.520Z,15.01
2023-04-10T15:02:45.786Z,14.83
2023-04-10T15:05:48.511Z,14.65
2023-04-10T15:08:52.357Z,14.94
2023-04-10T15:11:57.585Z,14.96
2023-04-10T15:15:00.403Z,15.08
2023-04-10T15:18:03.290Z,14.92
2023-04-10T15:21:06.482Z,14.78
2023-04-10T15:24:08.837Z,14.71
2023-04-10T15:27:11.518Z,14.63
2023-04-10T15:30:14.532Z,14.45
2023-04-10T15:33:17.532Z,14.45
2023-04-10T15:36:20.088Z,14.61
2023-04-10T15:39:23.219Z,14.78
2023-04-10T15:42:25.605Z,14.96
2023-04-10T15:45:27.948Z,15.23
2023-04-10T15:48:31.041Z,15.23
2023-04-10T15:51:33.721Z,15.17
2023-04-10T15:54:37.102Z,15.03
2023-04-10T15:57:40.018Z,14.90
2023-04-10T16:00:43.100Z,14.85
2023-04-10T16:03:46.179Z,14.72
2023-04-10T16:06:48.818Z,14.68
2023-04-10T16:09:52.883Z,14.69
2023-04-10T16:12:56.904Z,14.75
2023-04-10T16:16:00.316Z,14.87
2023-04-10T16:19:03.802Z,15.00
2023-04-10T16:22:07.289Z,15.07
2023-04-10T16:25:10.201Z,15.15
2023-04-10T16:28:12.860Z,15.18
2023-04-10T16:31:15.675Z,15.07
2023-04-10T16:34:18.030Z,14.98
2023-04-10T16:37:20.971Z,14.79
2023-04-10T16:40:25.096Z,14.76
2023-04-10T16:43:29.380Z,14.61
2023-04-10T16:46:33.446Z,14.51
2023-04-10T16:49:36.696Z,14.44
2023-04-10T16:52:40.370Z,14.39
2023-04-10T16:55:43.586Z,14.36
2023-04-10T16:58:46.966Z,14.30
2023-04-10T17:01:49.400Z,14.33
2023-04-10T17:04:52.060Z,14.23
2023-04-10T17:07:55.045Z,14.18
2023-04-10T17:10:58.114Z,14.11
2023-04-10T17:14:01.169Z,13.97
2023-04-10T17:17:03.842Z,13.88
2023-04-10T17:20:08.362Z,13.81
2023-04-10T17:23:12.645Z,13.81
2023-04-10T17:26:15.552Z,13.73
2023-04-10T17:29:18.309Z,13.69
2023-04-10T17:32:21.070Z,13.68
2023-04-10T17:35:25.556Z,13.63
2023-04-10T17:38:28.413Z,13.59
2023-04-10T17:41:31.097Z,13.57
2023-04-10T17:44:34.050Z,13.51
2023-04-10T17:47:36.813Z,13.42
2023-04-10T17:50:39.894Z,13.35
2023-04-10T17:53:42.865Z,13.33
2023-04-10T17:56:45.357Z,13.38
2023-04-10T17:59:48.247Z,13.34
2023-04-10T18:02:53.214Z,13.33
2023-04-10T18:05:55.993Z,13.31
2023-04-10T18:08:58.938Z,13.35
2023-04-10T18:12:01.714Z,13.29
2023-04-10T18:15:04.832Z,13.16
2023-04-10T18:18:07.352Z,13.15
2023-04-10T18:21:14.042Z,13.15
2023-04-10T18:24:17.112Z,13.20
2023-04-10T18:27:19.879Z,13.10
2023-04-10T18:30:22.356Z,13.04
2023-04-10T18:33:25.519Z,13.23
2023-04-10T18:36:28.424Z,13.08
2023-04-10T18:39:31.125Z,12.95
2023-04-10T18:42:33.777Z,12.92
2023-04-10T18:45:36.965Z,12.67
2023-04-10T18:48:47.481Z,12.48
2023-04-10T18:51:51.489Z,12.33
2023-04-10T18:54:53.940Z,12.29
2023-04-10T18:57:56.335Z,12.25
2023-04-10T19:00:59.136Z,12.19
2023-04-10T19:04:02.461Z,12.23
2023-04-10T19:07:05.596Z,12.25
2023-04-10T19:10:08.293Z,12.20
2023-04-10T19:13:12.474Z,12.19
2023-04-10T19:16:19.536Z,12.08
2023-04-10T19:19:21.886Z,12.00
2023-04-10T19:22:25.391Z,11.98
2023-04-10T19:25:28.338Z,11.85
2023-04-10T19:28:31.785Z,11.42
2023-04-10T19:31:34.181Z,11.24
2023-04-10T19:34:36.884Z,10.99
2023-04-10T19:37:39.792Z,10.92
2023-04-10T19:40:42.527Z,10.89
2023-04-10T19:43:45.876Z,10.89
2023-04-10T19:46:49.564Z,10.68
2023-04-10T19:49:52.124Z,10.66
2023-04-10T19:52:55.134Z,10.56
2023-04-10T19:55:57.961Z,10.57
2023-04-10T19:59:01.277Z,10.40
2023-04-10T20:02:04.614Z,10.35
2023-04-10T20:05:07.824Z,10.30
2023-04-10T20:08:10.152Z,10.26
2023-04-10T20:11:13.015Z,10.14
2023-04-10T20:14:15.825Z,10.15
2023-04-10T20:17:18.515Z,10.06
2023-04-10T20:20:20.817Z,10.01
2023-04-10T20:23:23.932Z,10.04
2023-04-10T20:26:26.190Z,10.02
2023-04-10T20:29:29.081Z,10.01
2023-04-10T20:32:32.044Z,9.99
2023-04-10T20:35:35.293Z,9.91
2023-04-10T20:38:38.578Z,9.83
2023-04-10T20:41:41.466Z,9.73
2023-04-10T20:44:44.311Z,9.71
2023-04-10T20:47:47.334Z,9.66
2023-04-10T20:50:50.490Z,9.57
2023-04-10T20:53:53.641Z,9.47
2023-04-10T20:57:00.206Z,9.53
2023-04-10T21:00:02.781Z,9.43
2023-04-10T21:03:06.732Z,9.40
2023-04-10T21:06:10.207Z,9.29
2023-04-10T21:09:12.959Z,9.17
2023-04-10T21:12:15.678Z,9.10
2023-04-10T21:15:18.726Z,9.05
2023-04-10T21:18:21.999Z,8.96
2023-04-10T21:21:25.369Z,8.86
2023-04-10T21:24:29.285Z,8.75
2023-04-10T21:27:32.682Z,8.66
2023-04-10T21:30:35.328Z,8.57
2023-04-10T21:33:38.364Z,8.53
2023-04-10T21:36:41.624Z,8.33
2023-04-10T21:39:44.396Z,8.28
2023-04-10T21:42:47.385Z,8.34
2023-04-10T21:45:50.036Z,8.33
2023-04-10T21:48:52.929Z,8.29
2023-04-10T21:51:56.632Z,8.29
2023-04-10T21:54:59.198Z,8.17
2023-04-10T21:58:01.986Z,8.14
2023-04-10T22:01:06.852Z,7.99
2023-04-10T22:04:10.819Z,7.87
2023-04-10T22:07:14.123Z,7.78
2023-04-10T22:10:17.612Z,7.69
2023-04-10T22:13:30.141Z,7.68
2023-04-10T22:16:34.402Z,7.68
2023-04-10T22:19:36.827Z,7.77
2023-04-10T22:22:39.220Z,7.76
2023-04-10T22:25:42.005Z,7.69
2023-04-10T22:28:45.297Z,7.64
2023-04-10T22:31:48.403Z,7.69
2023-04-10T22:34:51.754Z,7.67
2023-04-10T22:37:54.654Z,7.64
2023-04-10T22:40:57.602Z,7.57
2023-04-10T22:44:00.414Z,7.46
2023-04-10T22:47:03.351Z,7.46
2023-04-10T22:50:06.437Z,7.40
2023-04-10T22:53:11.772Z,7.35
2023-04-10T22:56:15.184Z,7.34
2023-04-10T22:59:19.306Z,7.30
2023-04-10T23:02:22.517Z,7.28
2023-04-10T23:05:26.273Z,7.26
2023-04-10T23:08:29.999Z,7.24
2023-04-10T23:11:34.038Z,7.23
2023-04-10T23:14:37.327Z,7.20
2023-04-10T23:17:40.112Z,7.18
2023-04-10T23:20:44.930Z,7.12
2023-04-10T23:23:48.454Z,7.08
2023-04-10T23:26:52.375Z,7.08
2023-04-10T23:29:55.555Z,7.00
2023-04-10T23:32:59.175Z,6.99
2023-04-10T23:36:02.012Z,7.02
2023-04-10T23:39:04.950Z,6.98
2023-04-10T23:42:08.650Z,6.93
2023-04-10T23:45:12.667Z,6.89
2023-04-10T23:48:15.668Z,6.87
2023-04-10T23:51:18.881Z,6.87
2023-04-10T23:54:22.120Z,6.84
2023-04-10T23:57:24.628Z,6.93
